sensor_id;sensor_type;location;lat;lon;timestamp;temperature;humidity
1337;DHT22;662;48.814;9.318;2024-02-04T00:00:02;10.70;63.30
1337;DHT22;662;48.814;9.318;2024-02-04T00:02:28;10.70;63.20
1337;DHT22;662;48.814;9.318;2024-02-04T00:04:54;10.80;63.30
1337;DHT22;662;48.814;9.318;2024-02-04T00:07:19;10.70;63.10
1337;DHT22;662;48.814;9.318;2024-02-04T00:09:45;10.80;63.20
1337;DHT22;662;48.814;9.318;2024-02-04T00:12:11;10.80;63.10
1337;DHT22;662;48.814;9.318;2024-02-04T00:14:36;10.70;63.00
1337;DHT22;662;48.814;9.318;2024-02-04T00:17:02;10.70;63.00
1337;DHT22;662;48.814;9.318;2024-02-04T00:19:28;10.80;63.10
1337;DHT22;662;48.814;9.318;2024-02-04T00:21:53;10.80;62.90
1337;DHT22;662;48.814;9.318;2024-02-04T00:24:19;10.80;62.90
1337;DHT22;662;48.814;9.318;2024-02-04T00:26:45;10.80;62.90
1337;DHT22;662;48.814;9.318;2024-02-04T00:29:10;10.80;62.60
1337;DHT22;662;48.814;9.318;2024-02-04T00:31:36;10.80;62.70
1337;DHT22;662;48.814;9.318;2024-02-04T00:34:02;10.80;62.60
1337;DHT22;662;48.814;9.318;2024-02-04T00:36:27;10.80;62.70
1337;DHT22;662;48.814;9.318;2024-02-04T00:38:53;10.80;62.70
1337;DHT22;662;48.814;9.318;2024-02-04T00:41:18;10.70;62.70
1337;DHT22;662;48.814;9.318;2024-02-04T00:43:44;10.80;62.90
1337;DHT22;662;48.814;9.318;2024-02-04T00:46:10;10.80;62.90
1337;DHT22;662;48.814;9.318;2024-02-04T00:48:36;10.80;62.90
1337;DHT22;662;48.814;9.318;2024-02-04T00:51:03;10.80;63.50
1337;DHT22;662;48.814;9.318;2024-02-04T00:53:28;10.80;62.80
1337;DHT22;662;48.814;9.318;2024-02-04T00:56:03;10.80;62.70
1337;DHT22;662;48.814;9.318;2024-02-04T00:58:29;10.80;62.70
1337;DHT22;662;48.814;9.318;2024-02-04T01:00:54;10.80;62.80
1337;DHT22;662;48.814;9.318;2024-02-04T01:03:20;10.80;62.80
1337;DHT22;662;48.814;9.318;2024-02-04T01:05:45;10.80;62.70
1337;DHT22;662;48.814;9.318;2024-02-04T01:08:11;10.80;62.80
1337;DHT22;662;48.814;9.318;2024-02-04T01:10:37;10.80;62.80
1337;DHT22;662;48.814;9.318;2024-02-04T01:13:03;10.80;62.90
1337;DHT22;662;48.814;9.318;2024-02-04T01:15:29;10.80;62.90
1337;DHT22;662;48.814;9.318;2024-02-04T01:17:55;10.80;62.90
1337;DHT22;662;48.814;9.318;2024-02-04T01:20:21;10.80;62.90
1337;DHT22;662;48.814;9.318;2024-02-04T01:22:46;10.80;62.90
1337;DHT22;662;48.814;9.318;2024-02-04T01:25:12;10.80;63.00
1337;DHT22;662;48.814;9.318;2024-02-04T01:27:38;10.80;62.90
1337;DHT22;662;48.814;9.318;2024-02-04T01:30:04;10.70;62.80
1337;DHT22;662;48.814;9.318;2024-02-04T01:32:30;10.80;62.90
1337;DHT22;662;48.814;9.318;2024-02-04T01:34:56;10.80;62.90
1337;DHT22;662;48.814;9.318;2024-02-04T01:37:21;10.80;62.90
1337;DHT22;662;48.814;9.318;2024-02-04T01:39:47;10.80;62.90
1337;DHT22;662;48.814;9.318;2024-02-04T01:42:13;10.70;62.70
1337;DHT22;662;48.814;9.318;2024-02-04T01:44:38;10.70;62.70
1337;DHT22;662;48.814;9.318;2024-02-04T01:47:04;10.80;62.80
1337;DHT22;662;48.814;9.318;2024-02-04T01:49:29;10.80;62.70
1337;DHT22;662;48.814;9.318;2024-02-04T01:51:55;10.80;62.80
1337;DHT22;662;48.814;9.318;2024-02-04T01:54:23;10.80;62.80
1337;DHT22;662;48.814;9.318;2024-02-04T01:56:52;10.80;62.60
1337;DHT22;662;48.814;9.318;2024-02-04T01:59:19;10.80;62.50
1337;DHT22;662;48.814;9.318;2024-02-04T02:01:46;10.70;62.50
1337;DHT22;662;48.814;9.318;2024-02-04T02:04:13;10.80;62.70
1337;DHT22;662;48.814;9.318;2024-02-04T02:06:39;10.70;62.50
1337;DHT22;662;48.814;9.318;2024-02-04T02:09:07;10.80;62.60
1337;DHT22;662;48.814;9.318;2024-02-04T02:12:02;10.70;62.50
1337;DHT22;662;48.814;9.318;2024-02-04T02:14:32;10.70;62.30
1337;DHT22;662;48.814;9.318;2024-02-04T02:17:03;10.70;62.40
1337;DHT22;662;48.814;9.318;2024-02-04T02:20:00;10.70;62.30
1337;DHT22;662;48.814;9.318;2024-02-04T02:22:56;10.70;62.40
1337;DHT22;662;48.814;9.318;2024-02-04T02:25:27;10.70;62.40
1337;DHT22;662;48.814;9.318;2024-02-04T02:27:53;10.70;62.50
1337;DHT22;662;48.814;9.318;2024-02-04T02:30:19;10.70;62.60
1337;DHT22;662;48.814;9.318;2024-02-04T02:32:46;10.60;62.60
1337;DHT22;662;48.814;9.318;2024-02-04T02:35:16;10.70;62.70
1337;DHT22;662;48.814;9.318;2024-02-04T02:40:47;10.60;62.60
1337;DHT22;662;48.814;9.318;2024-02-04T02:43:15;10.60;62.70
1337;DHT22;662;48.814;9.318;2024-02-04T02:45:42;10.60;62.80
1337;DHT22;662;48.814;9.318;2024-02-04T02:48:08;10.60;62.80
1337;DHT22;662;48.814;9.318;2024-02-04T02:50:38;10.60;62.90
1337;DHT22;662;48.814;9.318;2024-02-04T02:53:04;10.60;62.90
1337;DHT22;662;48.814;9.318;2024-02-04T02:55:30;10.60;63.00
1337;DHT22;662;48.814;9.318;2024-02-04T02:57:56;10.60;63.00
1337;DHT22;662;48.814;9.318;2024-02-04T03:00:21;10.60;63.00
1337;DHT22;662;48.814;9.318;2024-02-04T03:02:47;10.50;62.90
1337;DHT22;662;48.814;9.318;2024-02-04T03:05:15;10.50;62.80
1337;DHT22;662;48.814;9.318;2024-02-04T03:07:40;10.50;62.80
1337;DHT22;662;48.814;9.318;2024-02-04T03:10:06;10.50;62.90
1337;DHT22;662;48.814;9.318;2024-02-04T03:12:32;10.50;63.00
1337;DHT22;662;48.814;9.318;2024-02-04T03:15:01;10.50;63.00
1337;DHT22;662;48.814;9.318;2024-02-04T03:17:26;10.50;63.00
1337;DHT22;662;48.814;9.318;2024-02-04T03:19:52;10.50;63.00
1337;DHT22;662;48.814;9.318;2024-02-04T03:22:20;10.50;63.00
1337;DHT22;662;48.814;9.318;2024-02-04T03:24:47;10.50;63.00
1337;DHT22;662;48.814;9.318;2024-02-04T03:27:13;10.50;63.00
1337;DHT22;662;48.814;9.318;2024-02-04T03:29:38;10.40;63.00
1337;DHT22;662;48.814;9.318;2024-02-04T03:32:04;10.40;63.00
1337;DHT22;662;48.814;9.318;2024-02-04T03:34:30;10.40;63.10
1337;DHT22;662;48.814;9.318;2024-02-04T03:36:56;10.40;63.90
1337;DHT22;662;48.814;9.318;2024-02-04T03:39:21;10.40;63.20
1337;DHT22;662;48.814;9.318;2024-02-04T03:41:47;10.40;63.20
1337;DHT22;662;48.814;9.318;2024-02-04T03:44:13;10.40;63.20
1337;DHT22;662;48.814;9.318;2024-02-04T03:46:38;10.40;63.40
1337;DHT22;662;48.814;9.318;2024-02-04T03:49:06;10.40;63.40
1337;DHT22;662;48.814;9.318;2024-02-04T03:51:33;10.40;63.50
1337;DHT22;662;48.814;9.318;2024-02-04T03:53:58;10.40;63.40
1337;DHT22;662;48.814;9.318;2024-02-04T03:56:24;10.30;63.40
1337;DHT22;662;48.814;9.318;2024-02-04T03:58:49;10.40;63.60
1337;DHT22;662;48.814;9.318;2024-02-04T04:01:16;10.40;63.70
1337;DHT22;662;48.814;9.318;2024-02-04T04:03:42;10.40;63.70
1337;DHT22;662;48.814;9.318;2024-02-04T04:06:09;10.30;63.60
1337;DHT22;662;48.814;9.318;2024-02-04T04:08:35;10.30;63.60
1337;DHT22;662;48.814;9.318;2024-02-04T04:11:00;10.30;63.70
1337;DHT22;662;48.814;9.318;2024-02-04T04:13:26;10.30;63.80
1337;DHT22;662;48.814;9.318;2024-02-04T04:15:52;10.30;63.80
1337;DHT22;662;48.814;9.318;2024-02-04T04:18:17;10.30;63.80
1337;DHT22;662;48.814;9.318;2024-02-04T04:20:43;10.30;63.90
1337;DHT22;662;48.814;9.318;2024-02-04T04:23:08;10.30;63.90
1337;DHT22;662;48.814;9.318;2024-02-04T04:25:34;10.30;64.00
1337;DHT22;662;48.814;9.318;2024-02-04T04:28:00;10.30;63.90
1337;DHT22;662;48.814;9.318;2024-02-04T04:30:26;10.30;64.00
1337;DHT22;662;48.814;9.318;2024-02-04T04:32:51;10.30;64.00
1337;DHT22;662;48.814;9.318;2024-02-04T04:35:17;10.30;64.10
1337;DHT22;662;48.814;9.318;2024-02-04T04:37:42;10.30;64.10
1337;DHT22;662;48.814;9.318;2024-02-04T04:40:09;10.30;64.10
1337;DHT22;662;48.814;9.318;2024-02-04T04:42:34;10.30;64.10
1337;DHT22;662;48.814;9.318;2024-02-04T04:45:00;10.30;64.10
1337;DHT22;662;48.814;9.318;2024-02-04T04:47:26;10.40;64.20
1337;DHT22;662;48.814;9.318;2024-02-04T04:49:51;10.30;64.00
1337;DHT22;662;48.814;9.318;2024-02-04T04:52:17;10.30;64.10
1337;DHT22;662;48.814;9.318;2024-02-04T04:54:43;10.40;64.10
1337;DHT22;662;48.814;9.318;2024-02-04T04:57:08;10.40;64.20
1337;DHT22;662;48.814;9.318;2024-02-04T04:59:34;10.40;64.20
1337;DHT22;662;48.814;9.318;2024-02-04T05:02:01;10.40;64.20
1337;DHT22;662;48.814;9.318;2024-02-04T05:04:27;10.40;64.20
1337;DHT22;662;48.814;9.318;2024-02-04T05:06:53;10.40;64.30
1337;DHT22;662;48.814;9.318;2024-02-04T05:09:18;10.40;64.30
1337;DHT22;662;48.814;9.318;2024-02-04T05:11:53;10.40;64.30
1337;DHT22;662;48.814;9.318;2024-02-04T05:14:18;10.40;64.30
1337;DHT22;662;48.814;9.318;2024-02-04T05:16:45;10.40;64.20
1337;DHT22;662;48.814;9.318;2024-02-04T05:19:11;10.40;64.20
1337;DHT22;662;48.814;9.318;2024-02-04T05:21:40;10.40;64.30
1337;DHT22;662;48.814;9.318;2024-02-04T05:24:06;10.40;64.30
1337;DHT22;662;48.814;9.318;2024-02-04T05:26:32;10.40;64.30
1337;DHT22;662;48.814;9.318;2024-02-04T05:28:57;10.40;64.20
1337;DHT22;662;48.814;9.318;2024-02-04T05:31:23;10.40;64.20
1337;DHT22;662;48.814;9.318;2024-02-04T05:36:15;10.40;64.20
1337;DHT22;662;48.814;9.318;2024-02-04T05:38:44;10.40;64.30
1337;DHT22;662;48.814;9.318;2024-02-04T05:41:10;10.40;64.30
1337;DHT22;662;48.814;9.318;2024-02-04T05:43:36;10.40;64.20
1337;DHT22;662;48.814;9.318;2024-02-04T05:46:01;10.40;64.20
1337;DHT22;662;48.814;9.318;2024-02-04T05:48:27;10.30;64.10
1337;DHT22;662;48.814;9.318;2024-02-04T05:50:52;10.40;64.30
1337;DHT22;662;48.814;9.318;2024-02-04T05:53:18;10.40;64.20
1337;DHT22;662;48.814;9.318;2024-02-04T05:55:44;10.40;64.20
1337;DHT22;662;48.814;9.318;2024-02-04T05:58:10;10.40;64.20
1337;DHT22;662;48.814;9.318;2024-02-04T06:00:36;10.40;64.20
1337;DHT22;662;48.814;9.318;2024-02-04T06:03:01;10.40;64.20
1337;DHT22;662;48.814;9.318;2024-02-04T06:05:27;10.40;64.20
1337;DHT22;662;48.814;9.318;2024-02-04T06:07:53;10.40;64.20
1337;DHT22;662;48.814;9.318;2024-02-04T06:10:18;10.40;64.00
1337;DHT22;662;48.814;9.318;2024-02-04T06:12:44;10.40;63.90
1337;DHT22;662;48.814;9.318;2024-02-04T06:15:14;10.40;64.00
1337;DHT22;662;48.814;9.318;2024-02-04T06:17:40;10.40;63.80
1337;DHT22;662;48.814;9.318;2024-02-04T06:20:06;10.40;63.80
1337;DHT22;662;48.814;9.318;2024-02-04T06:22:34;10.30;63.90
1337;DHT22;662;48.814;9.318;2024-02-04T06:24:59;10.20;63.90
1337;DHT22;662;48.814;9.318;2024-02-04T06:27:25;10.20;64.00
1337;DHT22;662;48.814;9.318;2024-02-04T06:29:53;10.20;64.10
1337;DHT22;662;48.814;9.318;2024-02-04T06:32:19;10.20;64.10
1337;DHT22;662;48.814;9.318;2024-02-04T06:34:47;10.10;64.40
1337;DHT22;662;48.814;9.318;2024-02-04T06:37:13;10.10;64.20
1337;DHT22;662;48.814;9.318;2024-02-04T06:39:38;10.10;64.30
1337;DHT22;662;48.814;9.318;2024-02-04T06:42:04;10.10;64.30
1337;DHT22;662;48.814;9.318;2024-02-04T06:44:30;10.10;64.30
1337;DHT22;662;48.814;9.318;2024-02-04T06:46:55;10.00;64.20
1337;DHT22;662;48.814;9.318;2024-02-04T06:49:21;10.00;64.20
1337;DHT22;662;48.814;9.318;2024-02-04T06:51:47;10.00;64.30
1337;DHT22;662;48.814;9.318;2024-02-04T06:54:14;10.10;64.30
1337;DHT22;662;48.814;9.318;2024-02-04T06:56:40;10.00;64.30
1337;DHT22;662;48.814;9.318;2024-02-04T06:59:05;10.00;64.40
1337;DHT22;662;48.814;9.318;2024-02-04T07:01:32;10.00;64.50
1337;DHT22;662;48.814;9.318;2024-02-04T07:03:58;10.00;64.50
1337;DHT22;662;48.814;9.318;2024-02-04T07:06:24;10.00;64.50
1337;DHT22;662;48.814;9.318;2024-02-04T07:08:49;10.00;64.60
1337;DHT22;662;48.814;9.318;2024-02-04T07:11:16;10.00;64.60
1337;DHT22;662;48.814;9.318;2024-02-04T07:13:41;10.00;64.60
1337;DHT22;662;48.814;9.318;2024-02-04T07:16:07;10.00;64.70
1337;DHT22;662;48.814;9.318;2024-02-04T07:18:33;9.90;66.00
1337;DHT22;662;48.814;9.318;2024-02-04T07:20:58;9.90;66.20
1337;DHT22;662;48.814;9.318;2024-02-04T07:23:24;9.90;66.20
1337;DHT22;662;48.814;9.318;2024-02-04T07:25:50;9.90;66.30
1337;DHT22;662;48.814;9.318;2024-02-04T07:28:15;9.90;66.20
1337;DHT22;662;48.814;9.318;2024-02-04T07:30:41;9.90;66.40
1337;DHT22;662;48.814;9.318;2024-02-04T07:33:07;9.90;66.40
1337;DHT22;662;48.814;9.318;2024-02-04T07:35:33;9.90;66.40
1337;DHT22;662;48.814;9.318;2024-02-04T07:37:58;10.00;65.30
1337;DHT22;662;48.814;9.318;2024-02-04T07:40:24;10.00;65.20
1337;DHT22;662;48.814;9.318;2024-02-04T07:42:50;10.00;65.20
1337;DHT22;662;48.814;9.318;2024-02-04T07:45:15;10.00;65.20
1337;DHT22;662;48.814;9.318;2024-02-04T07:47:41;10.00;65.20
1337;DHT22;662;48.814;9.318;2024-02-04T07:50:07;10.00;65.80
1337;DHT22;662;48.814;9.318;2024-02-04T07:52:33;10.10;65.10
1337;DHT22;662;48.814;9.318;2024-02-04T07:54:59;10.10;65.10
1337;DHT22;662;48.814;9.318;2024-02-04T07:57:25;10.20;64.90
1337;DHT22;662;48.814;9.318;2024-02-04T07:59:50;10.20;64.80
1337;DHT22;662;48.814;9.318;2024-02-04T08:02:18;10.20;64.70
1337;DHT22;662;48.814;9.318;2024-02-04T08:04:43;10.30;64.40
1337;DHT22;662;48.814;9.318;2024-02-04T08:07:09;10.30;64.30
1337;DHT22;662;48.814;9.318;2024-02-04T08:09:34;10.30;64.30
1337;DHT22;662;48.814;9.318;2024-02-04T08:12:00;10.40;64.30
1337;DHT22;662;48.814;9.318;2024-02-04T08:14:26;10.40;64.10
1337;DHT22;662;48.814;9.318;2024-02-04T08:16:51;10.40;63.90
1337;DHT22;662;48.814;9.318;2024-02-04T08:19:17;10.50;64.00
1337;DHT22;662;48.814;9.318;2024-02-04T08:21:42;10.50;63.90
1337;DHT22;662;48.814;9.318;2024-02-04T08:24:08;10.50;63.80
1337;DHT22;662;48.814;9.318;2024-02-04T08:26:34;10.50;63.90
1337;DHT22;662;48.814;9.318;2024-02-04T08:29:00;10.50;63.70
1337;DHT22;662;48.814;9.318;2024-02-04T08:31:26;10.60;63.70
1337;DHT22;662;48.814;9.318;2024-02-04T08:33:51;10.60;63.70
1337;DHT22;662;48.814;9.318;2024-02-04T08:36:18;10.60;63.70
1337;DHT22;662;48.814;9.318;2024-02-04T08:38:44;10.60;63.60
1337;DHT22;662;48.814;9.318;2024-02-04T08:41:10;10.60;63.70
1337;DHT22;662;48.814;9.318;2024-02-04T08:43:36;10.60;63.70
1337;DHT22;662;48.814;9.318;2024-02-04T08:46:02;10.60;63.60
1337;DHT22;662;48.814;9.318;2024-02-04T08:48:27;10.70;63.70
1337;DHT22;662;48.814;9.318;2024-02-04T08:50:53;10.70;63.50
1337;DHT22;662;48.814;9.318;2024-02-04T08:53:22;10.70;63.50
1337;DHT22;662;48.814;9.318;2024-02-04T08:55:49;10.70;63.50
1337;DHT22;662;48.814;9.318;2024-02-04T08:58:15;10.70;63.50
1337;DHT22;662;48.814;9.318;2024-02-04T09:00:40;10.70;63.30
1337;DHT22;662;48.814;9.318;2024-02-04T09:03:06;10.60;63.40
1337;DHT22;662;48.814;9.318;2024-02-04T09:05:32;10.60;63.50
1337;DHT22;662;48.814;9.318;2024-02-04T09:07:57;10.70;63.60
1337;DHT22;662;48.814;9.318;2024-02-04T09:10:23;10.70;63.40
1337;DHT22;662;48.814;9.318;2024-02-04T09:12:49;10.70;63.40
1337;DHT22;662;48.814;9.318;2024-02-04T09:15:14;10.70;63.30
1337;DHT22;662;48.814;9.318;2024-02-04T09:17:40;10.80;63.30
1337;DHT22;662;48.814;9.318;2024-02-04T09:20:06;10.80;63.40
1337;DHT22;662;48.814;9.318;2024-02-04T09:22:33;10.70;63.20
1337;DHT22;662;48.814;9.318;2024-02-04T09:24:59;10.80;63.30
1337;DHT22;662;48.814;9.318;2024-02-04T09:27:24;10.80;63.40
1337;DHT22;662;48.814;9.318;2024-02-04T09:29:51;10.80;63.50
1337;DHT22;662;48.814;9.318;2024-02-04T09:32:17;10.80;63.30
1337;DHT22;662;48.814;9.318;2024-02-04T09:34:43;10.80;63.30
1337;DHT22;662;48.814;9.318;2024-02-04T09:37:09;10.90;63.30
1337;DHT22;662;48.814;9.318;2024-02-04T09:39:34;10.80;63.20
1337;DHT22;662;48.814;9.318;2024-02-04T09:42:00;10.90;63.40
1337;DHT22;662;48.814;9.318;2024-02-04T09:44:26;11.00;63.40
1337;DHT22;662;48.814;9.318;2024-02-04T09:46:53;11.00;63.20
1337;DHT22;662;48.814;9.318;2024-02-04T09:49:19;11.00;63.00
1337;DHT22;662;48.814;9.318;2024-02-04T09:51:46;11.10;63.00
1337;DHT22;662;48.814;9.318;2024-02-04T09:54:15;11.20;62.90
1337;DHT22;662;48.814;9.318;2024-02-04T09:56:42;11.20;62.70
1337;DHT22;662;48.814;9.318;2024-02-04T09:59:07;11.30;62.70
1337;DHT22;662;48.814;9.318;2024-02-04T10:01:35;11.30;62.60
1337;DHT22;662;48.814;9.318;2024-02-04T10:04:01;11.40;62.60
1337;DHT22;662;48.814;9.318;2024-02-04T10:06:27;11.50;62.60
1337;DHT22;662;48.814;9.318;2024-02-04T10:08:53;11.60;63.10
1337;DHT22;662;48.814;9.318;2024-02-04T10:11:19;11.70;62.00
1337;DHT22;662;48.814;9.318;2024-02-04T10:13:49;11.80;61.80
1337;DHT22;662;48.814;9.318;2024-02-04T10:16:18;11.90;61.60
1337;DHT22;662;48.814;9.318;2024-02-04T10:18:48;11.90;61.30
1337;DHT22;662;48.814;9.318;2024-02-04T10:21:19;12.00;60.90
1337;DHT22;662;48.814;9.318;2024-02-04T10:23:46;12.10;60.90
1337;DHT22;662;48.814;9.318;2024-02-04T10:26:12;12.20;60.70
1337;DHT22;662;48.814;9.318;2024-02-04T10:28:38;12.30;60.60
1337;DHT22;662;48.814;9.318;2024-02-04T10:31:04;12.30;60.20
1337;DHT22;662;48.814;9.318;2024-02-04T10:33:30;12.40;60.00
1337;DHT22;662;48.814;9.318;2024-02-04T10:35:57;12.40;59.70
1337;DHT22;662;48.814;9.318;2024-02-04T10:38:22;12.40;60.00
1337;DHT22;662;48.814;9.318;2024-02-04T10:40:53;12.50;59.60
1337;DHT22;662;48.814;9.318;2024-02-04T10:43:21;12.50;59.60
1337;DHT22;662;48.814;9.318;2024-02-04T10:45:47;12.50;59.60
1337;DHT22;662;48.814;9.318;2024-02-04T10:48:15;12.50;59.50
1337;DHT22;662;48.814;9.318;2024-02-04T10:50:46;12.60;59.50
1337;DHT22;662;48.814;9.318;2024-02-04T10:53:14;12.70;59.30
1337;DHT22;662;48.814;9.318;2024-02-04T10:55:46;12.80;59.10
1337;DHT22;662;48.814;9.318;2024-02-04T10:58:12;12.90;59.20
1337;DHT22;662;48.814;9.318;2024-02-04T11:00:40;12.90;58.90
1337;DHT22;662;48.814;9.318;2024-02-04T11:03:06;13.00;58.40
1337;DHT22;662;48.814;9.318;2024-02-04T11:05:33;13.00;58.40
1337;DHT22;662;48.814;9.318;2024-02-04T11:08:02;12.90;58.50
1337;DHT22;662;48.814;9.318;2024-02-04T11:10:32;12.90;58.70
1337;DHT22;662;48.814;9.318;2024-02-04T11:12:59;13.00;58.90
1337;DHT22;662;48.814;9.318;2024-02-04T11:15:29;13.00;58.80
1337;DHT22;662;48.814;9.318;2024-02-04T11:18:23;13.10;58.90
1337;DHT22;662;48.814;9.318;2024-02-04T11:21:25;13.10;59.00
1337;DHT22;662;48.814;9.318;2024-02-04T11:26:23;13.40;59.00
1337;DHT22;662;48.814;9.318;2024-02-04T11:28:49;13.50;58.80
1337;DHT22;662;48.814;9.318;2024-02-04T11:31:17;13.60;58.70
1337;DHT22;662;48.814;9.318;2024-02-04T11:33:42;13.70;58.30
1337;DHT22;662;48.814;9.318;2024-02-04T11:36:13;13.80;58.20
1337;DHT22;662;48.814;9.318;2024-02-04T11:38:39;13.80;58.00
1337;DHT22;662;48.814;9.318;2024-02-04T11:41:06;13.70;58.00
1337;DHT22;662;48.814;9.318;2024-02-04T11:43:36;13.70;58.10
1337;DHT22;662;48.814;9.318;2024-02-04T11:46:06;13.60;58.20
1337;DHT22;662;48.814;9.318;2024-02-04T11:48:34;13.60;58.40
1337;DHT22;662;48.814;9.318;2024-02-04T11:51:03;13.60;58.60
1337;DHT22;662;48.814;9.318;2024-02-04T11:53:29;13.60;58.70
1337;DHT22;662;48.814;9.318;2024-02-04T11:56:00;13.60;58.70
1337;DHT22;662;48.814;9.318;2024-02-04T11:58:27;13.60;58.60
1337;DHT22;662;48.814;9.318;2024-02-04T12:00:53;13.60;58.60
1337;DHT22;662;48.814;9.318;2024-02-04T12:03:30;13.70;58.70
1337;DHT22;662;48.814;9.318;2024-02-04T12:05:57;13.60;59.00
1337;DHT22;662;48.814;9.318;2024-02-04T12:08:24;13.60;58.50
1337;DHT22;662;48.814;9.318;2024-02-04T12:10:49;13.60;58.60
1337;DHT22;662;48.814;9.318;2024-02-04T12:13:15;13.70;58.70
1337;DHT22;662;48.814;9.318;2024-02-04T12:15:41;13.70;58.70
1337;DHT22;662;48.814;9.318;2024-02-04T12:18:11;13.80;58.70
1337;DHT22;662;48.814;9.318;2024-02-04T12:20:39;13.80;58.60
1337;DHT22;662;48.814;9.318;2024-02-04T12:23:08;13.90;58.60
1337;DHT22;662;48.814;9.318;2024-02-04T12:25:34;13.90;58.40
1337;DHT22;662;48.814;9.318;2024-02-04T12:28:01;13.90;58.40
1337;DHT22;662;48.814;9.318;2024-02-04T12:30:32;13.90;58.20
1337;DHT22;662;48.814;9.318;2024-02-04T12:32:58;13.90;58.20
1337;DHT22;662;48.814;9.318;2024-02-04T12:35:27;13.90;58.10
1337;DHT22;662;48.814;9.318;2024-02-04T12:37:54;13.80;58.10
1337;DHT22;662;48.814;9.318;2024-02-04T12:40:27;13.80;58.20
1337;DHT22;662;48.814;9.318;2024-02-04T12:43:00;13.80;58.20
1337;DHT22;662;48.814;9.318;2024-02-04T12:45:32;13.90;58.30
1337;DHT22;662;48.814;9.318;2024-02-04T12:47:58;14.00;58.40
1337;DHT22;662;48.814;9.318;2024-02-04T12:50:24;14.00;58.30
1337;DHT22;662;48.814;9.318;2024-02-04T12:53:11;14.10;58.30
1337;DHT22;662;48.814;9.318;2024-02-04T12:55:40;14.10;58.00
1337;DHT22;662;48.814;9.318;2024-02-04T12:58:12;14.10;57.90
1337;DHT22;662;48.814;9.318;2024-02-04T13:00:40;14.10;57.90
1337;DHT22;662;48.814;9.318;2024-02-04T13:03:08;14.10;57.70
1337;DHT22;662;48.814;9.318;2024-02-04T13:05:34;14.10;57.80
1337;DHT22;662;48.814;9.318;2024-02-04T13:08:02;14.10;57.90
1337;DHT22;662;48.814;9.318;2024-02-04T13:10:29;14.10;57.90
1337;DHT22;662;48.814;9.318;2024-02-04T13:13:04;14.10;58.00
1337;DHT22;662;48.814;9.318;2024-02-04T13:15:38;14.00;57.90
1337;DHT22;662;48.814;9.318;2024-02-04T13:18:04;14.00;58.10
1337;DHT22;662;48.814;9.318;2024-02-04T13:20:30;14.00;58.10
1337;DHT22;662;48.814;9.318;2024-02-04T13:22:56;13.90;58.20
1337;DHT22;662;48.814;9.318;2024-02-04T13:25:23;13.90;58.20
1337;DHT22;662;48.814;9.318;2024-02-04T13:27:49;13.90;58.40
1337;DHT22;662;48.814;9.318;2024-02-04T13:30:18;13.80;58.40
1337;DHT22;662;48.814;9.318;2024-02-04T13:32:45;13.80;58.50
1337;DHT22;662;48.814;9.318;2024-02-04T13:35:11;13.80;58.50
1337;DHT22;662;48.814;9.318;2024-02-04T13:37:41;13.80;58.60
1337;DHT22;662;48.814;9.318;2024-02-04T13:40:08;13.70;58.60
1337;DHT22;662;48.814;9.318;2024-02-04T13:42:35;13.70;58.60
1337;DHT22;662;48.814;9.318;2024-02-04T13:45:02;13.70;58.80
1337;DHT22;662;48.814;9.318;2024-02-04T13:47:28;13.70;58.90
1337;DHT22;662;48.814;9.318;2024-02-04T13:49:54;13.70;59.00
1337;DHT22;662;48.814;9.318;2024-02-04T13:52:21;13.60;59.00
1337;DHT22;662;48.814;9.318;2024-02-04T13:54:47;13.60;59.10
1337;DHT22;662;48.814;9.318;2024-02-04T13:57:12;13.60;59.10
1337;DHT22;662;48.814;9.318;2024-02-04T13:59:38;13.60;59.20
1337;DHT22;662;48.814;9.318;2024-02-04T14:02:04;13.60;59.20
1337;DHT22;662;48.814;9.318;2024-02-04T14:04:30;13.60;59.30
1337;DHT22;662;48.814;9.318;2024-02-04T14:06:57;13.60;59.20
1337;DHT22;662;48.814;9.318;2024-02-04T14:09:22;13.70;59.30
1337;DHT22;662;48.814;9.318;2024-02-04T14:11:48;13.70;59.30
1337;DHT22;662;48.814;9.318;2024-02-04T14:14:14;13.70;59.30
1337;DHT22;662;48.814;9.318;2024-02-04T14:16:39;13.70;59.20
1337;DHT22;662;48.814;9.318;2024-02-04T14:19:05;13.70;59.20
1337;DHT22;662;48.814;9.318;2024-02-04T14:21:31;13.70;59.10
1337;DHT22;662;48.814;9.318;2024-02-04T14:23:57;13.70;59.00
1337;DHT22;662;48.814;9.318;2024-02-04T14:26:22;13.70;59.10
1337;DHT22;662;48.814;9.318;2024-02-04T14:28:48;13.70;59.60
1337;DHT22;662;48.814;9.318;2024-02-04T14:31:14;13.70;59.10
1337;DHT22;662;48.814;9.318;2024-02-04T14:33:40;13.60;59.00
1337;DHT22;662;48.814;9.318;2024-02-04T14:36:07;13.60;58.90
1337;DHT22;662;48.814;9.318;2024-02-04T14:38:33;13.60;59.00
1337;DHT22;662;48.814;9.318;2024-02-04T14:40:58;13.60;59.20
1337;DHT22;662;48.814;9.318;2024-02-04T14:43:27;13.60;59.20
1337;DHT22;662;48.814;9.318;2024-02-04T14:45:53;13.50;59.20
1337;DHT22;662;48.814;9.318;2024-02-04T14:48:18;13.50;59.40
1337;DHT22;662;48.814;9.318;2024-02-04T14:50:44;13.40;59.30
1337;DHT22;662;48.814;9.318;2024-02-04T14:53:09;13.40;59.30
1337;DHT22;662;48.814;9.318;2024-02-04T14:55:37;13.30;59.40
1337;DHT22;662;48.814;9.318;2024-02-04T14:58:04;13.40;59.50
1337;DHT22;662;48.814;9.318;2024-02-04T15:00:30;13.40;59.60
1337;DHT22;662;48.814;9.318;2024-02-04T15:02:55;13.30;59.60
1337;DHT22;662;48.814;9.318;2024-02-04T15:05:21;13.30;60.20
1337;DHT22;662;48.814;9.318;2024-02-04T15:07:48;13.20;59.70
1337;DHT22;662;48.814;9.318;2024-02-04T15:10:14;13.20;59.80
1337;DHT22;662;48.814;9.318;2024-02-04T15:12:40;13.10;59.90
1337;DHT22;662;48.814;9.318;2024-02-04T15:15:07;13.10;60.00
1337;DHT22;662;48.814;9.318;2024-02-04T15:17:34;13.10;60.00
1337;DHT22;662;48.814;9.318;2024-02-04T15:19:59;13.10;60.10
1337;DHT22;662;48.814;9.318;2024-02-04T15:22:25;13.10;60.20
1337;DHT22;662;48.814;9.318;2024-02-04T15:24:51;13.10;60.20
1337;DHT22;662;48.814;9.318;2024-02-04T15:27:20;13.10;60.30
1337;DHT22;662;48.814;9.318;2024-02-04T15:29:47;13.10;60.10
1337;DHT22;662;48.814;9.318;2024-02-04T15:32:14;13.00;60.00
1337;DHT22;662;48.814;9.318;2024-02-04T15:34:44;13.00;60.00
1337;DHT22;662;48.814;9.318;2024-02-04T15:37:10;13.00;60.10
1337;DHT22;662;48.814;9.318;2024-02-04T15:39:36;13.00;60.00
1337;DHT22;662;48.814;9.318;2024-02-04T15:42:04;12.90;59.90
1337;DHT22;662;48.814;9.318;2024-02-04T15:44:31;12.90;60.00
1337;DHT22;662;48.814;9.318;2024-02-04T15:47:03;12.90;60.00
1337;DHT22;662;48.814;9.318;2024-02-04T15:49:30;12.90;60.10
1337;DHT22;662;48.814;9.318;2024-02-04T15:51:56;12.80;60.10
1337;DHT22;662;48.814;9.318;2024-02-04T15:54:22;12.80;60.20
1337;DHT22;662;48.814;9.318;2024-02-04T15:56:55;12.70;60.30
1337;DHT22;662;48.814;9.318;2024-02-04T15:59:26;12.70;60.50
1337;DHT22;662;48.814;9.318;2024-02-04T16:01:53;12.70;60.60
1337;DHT22;662;48.814;9.318;2024-02-04T16:04:19;12.70;60.70
1337;DHT22;662;48.814;9.318;2024-02-04T16:06:44;12.70;60.80
1337;DHT22;662;48.814;9.318;2024-02-04T16:09:11;12.70;60.80
1337;DHT22;662;48.814;9.318;2024-02-04T16:12:05;12.70;61.10
1337;DHT22;662;48.814;9.318;2024-02-04T16:14:38;12.60;61.10
1337;DHT22;662;48.814;9.318;2024-02-04T16:17:12;12.60;61.10
1337;DHT22;662;48.814;9.318;2024-02-04T16:19:39;12.60;61.30
1337;DHT22;662;48.814;9.318;2024-02-04T16:22:05;12.50;61.30